createdAt,value
2019-03-20T00:00:41.634Z,0.00
2019-03-20T00:01:44.011Z,0.00
2019-03-20T00:03:34.701Z,0.00
2019-03-20T00:04:34.727Z,0.00
2019-03-20T00:06:27.746Z,0.00
2019-03-20T00:07:27.759Z,0.00
2019-03-20T00:09:20.781Z,0.00
2019-03-20T00:10:20.785Z,0.00
2019-03-20T00:12:13.778Z,0.00
2019-03-20T00:13:13.814Z,0.00
2019-03-20T00:15:06.788Z,0.00
2019-03-20T00:16:06.847Z,0.00
2019-03-20T00:17:59.840Z,0.00
2019-03-20T00:18:59.874Z,0.00
2019-03-20T00:20:52.857Z,0.00
2019-03-20T00:21:52.910Z,0.00
2019-03-20T00:23:45.906Z,0.00
2019-03-20T00:24:45.942Z,0.00
2019-03-20T00:26:38.933Z,0.00
2019-03-20T00:27:38.985Z,0.00
2019-03-20T00:29:31.989Z,0.00
2019-03-20T00:30:32.032Z,0.00
2019-03-20T00:32:25.025Z,0.00
2019-03-20T00:33:25.063Z,0.00
2019-03-20T00:35:18.048Z,0.00
2019-03-20T00:36:18.093Z,0.00
2019-03-20T00:38:11.111Z,0.00
2019-03-20T00:39:11.123Z,0.00
2019-03-20T00:41:04.099Z,0.00
2019-03-20T00:42:04.152Z,0.00
2019-03-20T00:43:57.143Z,0.00
2019-03-20T00:44:57.181Z,0.00
2019-03-20T00:46:50.158Z,0.00
2019-03-20T00:47:50.215Z,0.00
2019-03-20T00:49:43.218Z,0.00
2019-03-20T00:50:43.256Z,0.00
2019-03-20T00:52:36.258Z,0.00
2019-03-20T00:53:36.283Z,0.00
2019-03-20T00:55:29.270Z,0.00
2019-03-20T00:56:29.319Z,0.00
2019-03-20T00:58:22.313Z,0.00
2019-03-20T00:59:22.361Z,0.00
2019-03-20T01:01:15.324Z,0.00
2019-03-20T01:02:15.377Z,0.00
2019-03-20T01:04:08.366Z,0.00
2019-03-20T01:05:12.514Z,0.00
2019-03-20T01:07:01.407Z,0.00
2019-03-20T01:08:01.438Z,0.00
2019-03-20T01:09:54.430Z,0.00
2019-03-20T01:10:54.473Z,0.00
2019-03-20T01:12:47.458Z,0.00
2019-03-20T01:13:47.501Z,0.00
2019-03-20T01:15:40.496Z,0.00
2019-03-20T01:16:40.531Z,0.00
2019-03-20T01:18:33.537Z,0.00
2019-03-20T01:19:33.574Z,0.00
2019-03-20T01:21:26.569Z,0.00
2019-03-20T01:22:26.608Z,0.00
2019-03-20T01:24:19.594Z,0.00
2019-03-20T01:25:19.631Z,0.00
2019-03-20T01:27:12.597Z,0.00
2019-03-20T01:28:12.657Z,0.00
2019-03-20T01:30:05.654Z,0.00
2019-03-20T01:31:05.699Z,0.00
2019-03-20T01:32:58.702Z,0.00
2019-03-20T01:33:58.713Z,0.00
2019-03-20T01:35:51.690Z,0.00
2019-03-20T01:36:51.745Z,0.00
2019-03-20T01:38:44.760Z,0.00
2019-03-20T01:39:44.789Z,0.00
2019-03-20T01:41:38.464Z,0.00
2019-03-20T01:42:37.820Z,0.00
2019-03-20T01:44:30.826Z,0.00
2019-03-20T01:45:30.860Z,0.00
2019-03-20T01:47:23.834Z,0.00
2019-03-20T01:48:23.892Z,0.00
2019-03-20T01:50:16.891Z,0.00
2019-03-20T01:51:16.941Z,0.00
2019-03-20T01:53:09.922Z,0.00
2019-03-20T01:54:09.977Z,0.00
2019-03-20T01:56:02.954Z,0.00
2019-03-20T01:57:02.992Z,0.00
2019-03-20T01:58:55.969Z,0.00
2019-03-20T01:59:56.023Z,0.00
2019-03-20T02:01:49.018Z,0.00
2019-03-20T02:02:49.132Z,0.00
2019-03-20T02:04:42.031Z,0.00
2019-03-20T02:05:42.087Z,0.00
2019-03-20T02:07:35.082Z,0.00
2019-03-20T02:08:35.117Z,0.00
2019-03-20T02:10:28.624Z,0.00
2019-03-20T02:11:28.677Z,0.00
2019-03-20T02:13:21.672Z,0.00
2019-03-20T02:14:21.706Z,0.00
2019-03-20T02:16:14.695Z,0.00
2019-03-20T02:17:14.735Z,0.00
2019-03-20T02:19:07.737Z,0.00
2019-03-20T02:20:07.768Z,0.00
2019-03-20T02:22:00.762Z,0.00
2019-03-20T02:23:00.795Z,0.00
2019-03-20T02:24:53.797Z,0.00
2019-03-20T02:25:53.831Z,0.00
2019-03-20T02:27:46.824Z,0.00
2019-03-20T02:28:46.862Z,0.00
2019-03-20T02:30:39.855Z,0.00
2019-03-20T02:31:39.888Z,0.00
2019-03-20T02:33:32.883Z,0.00
2019-03-20T02:34:32.919Z,0.00
2019-03-20T02:36:25.914Z,0.00
2019-03-20T02:37:25.950Z,0.00
2019-03-20T02:39:18.952Z,0.00
2019-03-20T02:40:18.998Z,0.00
2019-03-20T02:42:11.996Z,0.00
2019-03-20T02:43:12.030Z,0.00
2019-03-20T02:45:05.027Z,0.00
2019-03-20T02:46:05.065Z,0.00
2019-03-20T02:47:58.052Z,0.00
2019-03-20T02:48:58.089Z,0.00
2019-03-20T02:50:51.084Z,0.00
2019-03-20T02:51:51.124Z,0.00
2019-03-20T02:53:44.095Z,0.00
2019-03-20T02:54:44.152Z,0.00
2019-03-20T02:56:37.153Z,0.00
2019-03-20T02:57:37.185Z,0.00
2019-03-20T02:59:30.169Z,0.00
2019-03-20T03:00:30.267Z,0.00
2019-03-20T03:02:23.221Z,0.00
2019-03-20T03:03:23.257Z,0.00
2019-03-20T03:05:16.264Z,0.00
2019-03-20T03:06:16.288Z,0.00
2019-03-20T03:08:09.281Z,0.00
2019-03-20T03:09:09.334Z,0.00
2019-03-20T03:11:02.839Z,0.00
2019-03-20T03:12:02.879Z,0.00
2019-03-20T03:13:55.843Z,0.00
2019-03-20T03:14:55.898Z,0.00
2019-03-20T03:16:48.934Z,0.00
2019-03-20T03:17:48.929Z,0.00
2019-03-20T03:19:41.927Z,0.00
2019-03-20T03:20:41.983Z,0.00
2019-03-20T03:22:34.967Z,0.00
2019-03-20T03:23:35.018Z,0.00
2019-03-20T03:25:27.998Z,0.00
2019-03-20T03:26:28.049Z,0.00
2019-03-20T03:28:21.032Z,0.00
2019-03-20T03:29:21.075Z,0.00
2019-03-20T03:31:14.049Z,0.00
2019-03-20T03:32:14.129Z,0.00
2019-03-20T03:34:07.105Z,0.00
2019-03-20T03:35:07.141Z,0.00
2019-03-20T03:37:00.138Z,0.00
2019-03-20T03:38:00.203Z,0.00
2019-03-20T03:39:53.188Z,0.00
2019-03-20T03:40:53.294Z,0.00
2019-03-20T03:42:46.245Z,0.00
2019-03-20T03:43:46.286Z,0.00
2019-03-20T03:45:39.277Z,0.00
2019-03-20T03:46:39.311Z,0.00
2019-03-20T03:48:32.293Z,0.00
2019-03-20T03:49:32.344Z,0.00
2019-03-20T03:51:25.338Z,0.00
2019-03-20T03:52:25.392Z,0.00
2019-03-20T03:54:18.359Z,0.00
2019-03-20T03:55:18.413Z,0.00
2019-03-20T03:57:11.396Z,0.00
2019-03-20T03:58:11.446Z,0.00
2019-03-20T04:00:04.441Z,0.00
2019-03-20T04:01:04.482Z,0.00
2019-03-20T04:02:57.472Z,0.00
2019-03-20T04:03:57.500Z,0.00
2019-03-20T04:05:50.476Z,0.00
2019-03-20T04:06:50.535Z,0.00
2019-03-20T04:08:43.516Z,0.00
2019-03-20T04:09:43.566Z,0.00
2019-03-20T04:11:36.569Z,0.00
2019-03-20T04:12:36.605Z,0.00
2019-03-20T04:14:29.602Z,0.00
2019-03-20T04:15:29.651Z,0.00
2019-03-20T04:17:22.635Z,0.00
2019-03-20T04:18:22.684Z,0.00
2019-03-20T04:20:15.649Z,0.00
2019-03-20T04:21:15.700Z,0.00
2019-03-20T04:23:08.698Z,0.00
2019-03-20T04:24:08.742Z,0.00
2019-03-20T04:26:01.712Z,0.00
2019-03-20T04:27:01.796Z,0.00
2019-03-20T04:28:54.767Z,0.00
2019-03-20T04:29:54.800Z,0.00
2019-03-20T04:31:47.814Z,0.00
2019-03-20T04:32:47.845Z,0.00
2019-03-20T04:34:40.797Z,0.00
2019-03-20T04:35:40.851Z,0.00
2019-03-20T04:37:33.850Z,0.00
2019-03-20T04:38:33.898Z,0.00
2019-03-20T04:40:26.877Z,0.00
2019-03-20T04:41:26.917Z,0.00
2019-03-20T04:43:19.912Z,0.00
2019-03-20T04:44:19.945Z,0.00
2019-03-20T04:46:12.942Z,0.00
2019-03-20T04:47:12.998Z,0.00
2019-03-20T04:49:05.993Z,0.00
2019-03-20T04:50:06.063Z,0.00
2019-03-20T04:51:59.005Z,0.00
2019-03-20T04:52:59.068Z,0.00
2019-03-20T04:54:52.070Z,0.00
2019-03-20T04:55:52.096Z,0.00
2019-03-20T04:57:46.005Z,0.00
2019-03-20T04:58:45.123Z,0.00
2019-03-20T05:00:38.118Z,0.00
2019-03-20T05:01:38.149Z,0.00
2019-03-20T05:03:31.128Z,0.00
2019-03-20T05:04:31.183Z,0.00
2019-03-20T05:06:24.197Z,0.00
2019-03-20T05:07:24.228Z,0.00
2019-03-20T05:09:17.200Z,0.00
2019-03-20T05:10:17.253Z,0.00
2019-03-20T05:12:10.258Z,0.00
2019-03-20T05:13:10.285Z,0.00
2019-03-20T05:15:03.257Z,0.00
2019-03-20T05:16:03.311Z,0.00
2019-03-20T05:17:56.304Z,0.00
2019-03-20T05:18:56.339Z,0.00
2019-03-20T05:20:49.338Z,0.00
2019-03-20T05:21:49.376Z,0.00
2019-03-20T05:23:42.379Z,5.63
2019-03-20T05:24:42.414Z,5.63
2019-03-20T05:26:35.411Z,5.63
2019-03-20T05:27:35.452Z,5.63
2019-03-20T05:29:28.430Z,5.63
2019-03-20T05:30:28.473Z,11.25
2019-03-20T05:32:21.472Z,11.25
2019-03-20T05:33:21.507Z,11.25
2019-03-20T05:35:14.510Z,16.88
2019-03-20T05:36:14.545Z,16.88
2019-03-20T05:38:07.524Z,22.50
2019-03-20T05:39:07.578Z,22.50
2019-03-20T05:41:00.590Z,28.13
2019-03-20T05:42:00.602Z,33.75
2019-03-20T05:43:53.601Z,33.75
2019-03-20T05:44:53.659Z,39.38
2019-03-20T05:46:46.656Z,45.00
2019-03-20T05:47:46.692Z,45.00
2019-03-20T05:49:39.675Z,50.63
2019-03-20T05:50:39.751Z,50.63
2019-03-20T05:52:32.694Z,56.25
2019-03-20T05:53:32.748Z,56.25
2019-03-20T05:55:25.743Z,67.50
2019-03-20T05:56:25.775Z,67.50
2019-03-20T05:58:18.791Z,78.75
2019-03-20T05:59:18.814Z,84.38
2019-03-20T06:01:11.788Z,101.25
2019-03-20T06:02:11.842Z,95.63
2019-03-20T06:04:04.840Z,95.63
2019-03-20T06:05:04.881Z,95.63
2019-03-20T06:06:57.906Z,95.63
2019-03-20T06:07:57.918Z,101.25
2019-03-20T06:09:50.893Z,112.50
2019-03-20T06:10:50.951Z,112.50
2019-03-20T06:12:43.949Z,118.13
2019-03-20T06:13:43.983Z,129.38
2019-03-20T06:15:36.958Z,129.38
2019-03-20T06:16:37.015Z,135.00
2019-03-20T06:18:30.007Z,140.63
2019-03-20T06:19:30.046Z,129.38
2019-03-20T06:21:23.025Z,118.13
2019-03-20T06:22:23.081Z,123.75
2019-03-20T06:24:16.055Z,129.38
2019-03-20T06:25:16.176Z,129.38
2019-03-20T06:27:09.113Z,140.63
2019-03-20T06:28:09.146Z,151.88
2019-03-20T06:30:02.122Z,163.13
2019-03-20T06:31:02.176Z,168.75
2019-03-20T06:32:55.180Z,168.75
2019-03-20T06:33:55.273Z,174.38
2019-03-20T06:35:48.213Z,185.63
2019-03-20T06:36:48.247Z,196.88
2019-03-20T06:38:41.317Z,213.75
2019-03-20T06:39:41.354Z,219.38
2019-03-20T06:41:34.353Z,225.00
2019-03-20T06:42:34.385Z,225.00
2019-03-20T06:44:27.368Z,241.88
2019-03-20T06:45:27.422Z,253.13
2019-03-20T06:47:20.436Z,270.00
2019-03-20T06:48:20.459Z,292.50
2019-03-20T06:50:13.444Z,286.88
2019-03-20T06:51:13.495Z,292.50
2019-03-20T06:53:06.490Z,326.25
2019-03-20T06:54:06.522Z,416.25
2019-03-20T06:55:59.511Z,376.88
2019-03-20T06:56:59.562Z,376.88
2019-03-20T06:58:52.563Z,405.00
2019-03-20T06:59:52.600Z,455.63
2019-03-20T07:01:45.580Z,421.88
2019-03-20T07:02:45.629Z,348.75
2019-03-20T07:04:38.618Z,320.63
2019-03-20T07:05:38.668Z,303.75
2019-03-20T07:07:31.660Z,286.88
2019-03-20T07:08:31.698Z,258.75
2019-03-20T07:10:26.213Z,241.88
2019-03-20T07:11:26.238Z,253.13
2019-03-20T07:13:19.238Z,315.00
2019-03-20T07:14:19.274Z,360.00
2019-03-20T07:16:12.275Z,680.63
2019-03-20T07:17:12.308Z,1473.75
2019-03-20T07:19:05.288Z,1721.25
2019-03-20T07:20:05.342Z,1473.75
2019-03-20T07:21:58.332Z,686.25
2019-03-20T07:22:58.373Z,663.75
2019-03-20T07:24:51.388Z,675.00
2019-03-20T07:25:51.410Z,686.25
2019-03-20T07:27:44.408Z,703.13
2019-03-20T07:28:44.481Z,618.75
2019-03-20T07:30:37.462Z,658.13
2019-03-20T07:31:37.501Z,697.50
2019-03-20T07:33:30.479Z,669.38
2019-03-20T07:34:30.588Z,686.25
2019-03-20T07:36:23.547Z,646.88
2019-03-20T07:37:23.579Z,635.63
2019-03-20T07:39:16.563Z,585.00
2019-03-20T07:40:16.624Z,556.88
2019-03-20T07:42:09.629Z,523.13
2019-03-20T07:43:09.681Z,489.38
2019-03-20T07:45:02.643Z,421.88
2019-03-20T07:46:02.704Z,388.13
2019-03-20T07:47:55.699Z,427.50
2019-03-20T07:48:55.743Z,461.25
2019-03-20T07:50:48.749Z,511.88
2019-03-20T07:51:48.787Z,1485.00
2019-03-20T07:53:41.782Z,1845.00
2019-03-20T07:54:41.821Z,2081.25
2019-03-20T07:56:34.816Z,2323.13
2019-03-20T07:57:34.863Z,2334.38
2019-03-20T07:59:27.866Z,1878.75
2019-03-20T08:00:27.902Z,1260.00
2019-03-20T08:02:20.906Z,753.75
2019-03-20T08:03:20.961Z,866.25
2019-03-20T08:05:13.937Z,714.38
2019-03-20T08:06:13.994Z,720.00
2019-03-20T08:08:07.894Z,596.25
2019-03-20T08:09:07.087Z,573.75
2019-03-20T08:11:00.555Z,534.38
2019-03-20T08:12:00.582Z,523.13
2019-03-20T08:13:53.593Z,523.13
2019-03-20T08:14:53.626Z,511.88
2019-03-20T08:16:46.617Z,517.50
2019-03-20T08:17:46.701Z,523.13
2019-03-20T08:19:39.676Z,528.75
2019-03-20T08:20:39.718Z,545.63
2019-03-20T08:22:32.692Z,534.38
2019-03-20T08:23:32.754Z,540.00
2019-03-20T08:25:25.754Z,528.75
2019-03-20T08:26:25.799Z,517.50
2019-03-20T08:28:18.783Z,511.88
2019-03-20T08:29:18.836Z,517.50
2019-03-20T08:31:11.872Z,495.00
2019-03-20T08:32:11.892Z,478.13
2019-03-20T08:34:04.899Z,472.50
2019-03-20T08:35:04.942Z,455.63
2019-03-20T08:36:57.939Z,450.00
2019-03-20T08:37:57.977Z,455.63
2019-03-20T08:39:50.976Z,455.63
2019-03-20T08:40:51.017Z,461.25
2019-03-20T08:42:44.008Z,478.13
2019-03-20T08:43:45.706Z,489.38
2019-03-20T08:45:37.068Z,489.38
2019-03-20T08:46:37.131Z,495.00
2019-03-20T08:48:30.088Z,540.00
2019-03-20T08:49:30.146Z,568.13
2019-03-20T08:51:23.151Z,624.38
2019-03-20T08:52:23.188Z,630.00
2019-03-20T08:54:16.194Z,601.88
2019-03-20T08:55:16.236Z,590.63
2019-03-20T08:57:09.223Z,551.25
2019-03-20T08:58:09.280Z,551.25
2019-03-20T09:00:02.286Z,545.63
2019-03-20T09:01:02.326Z,545.63
2019-03-20T09:02:55.316Z,556.88
2019-03-20T09:03:55.370Z,568.13
2019-03-20T09:05:48.375Z,590.63
2019-03-20T09:06:48.407Z,585.00
2019-03-20T09:08:41.390Z,585.00
2019-03-20T09:09:41.446Z,585.00
2019-03-20T09:11:34.441Z,579.38
2019-03-20T09:12:34.480Z,585.00
2019-03-20T09:14:27.485Z,585.00
2019-03-20T09:15:27.529Z,596.25
2019-03-20T09:17:20.530Z,601.88
2019-03-20T09:18:20.576Z,601.88
2019-03-20T09:20:13.619Z,613.13
2019-03-20T09:21:13.658Z,590.63
2019-03-20T09:23:06.653Z,601.88
2019-03-20T09:24:06.705Z,618.75
2019-03-20T09:25:59.712Z,646.88
2019-03-20T09:26:59.752Z,663.75
2019-03-20T09:28:52.732Z,691.88
2019-03-20T09:29:52.792Z,697.50
2019-03-20T09:31:45.797Z,708.75
2019-03-20T09:32:45.836Z,714.38
2019-03-20T09:34:38.840Z,708.75
2019-03-20T09:35:38.906Z,703.13
2019-03-20T09:37:31.910Z,714.38
2019-03-20T09:38:42.729Z,725.63
2019-03-20T09:40:24.949Z,731.25
2019-03-20T09:41:24.987Z,753.75
2019-03-20T09:43:17.998Z,765.00
2019-03-20T09:44:18.036Z,776.25
2019-03-20T09:46:11.016Z,787.50
2019-03-20T09:47:11.075Z,787.50
2019-03-20T09:49:04.079Z,765.00
2019-03-20T09:50:04.116Z,748.13
2019-03-20T09:51:57.115Z,742.50
2019-03-20T09:52:57.155Z,736.88
2019-03-20T09:54:50.167Z,759.38
2019-03-20T09:55:50.200Z,765.00
2019-03-20T09:57:43.208Z,776.25
2019-03-20T09:58:43.272Z,793.13
2019-03-20T10:00:36.279Z,832.50
2019-03-20T10:01:36.321Z,855.00
2019-03-20T10:03:29.352Z,871.88
2019-03-20T10:04:29.393Z,855.00
2019-03-20T10:06:22.373Z,815.63
2019-03-20T10:07:22.449Z,798.75
2019-03-20T10:09:15.433Z,781.88
2019-03-20T10:10:15.482Z,781.88
2019-03-20T10:12:08.482Z,793.13
2019-03-20T10:13:08.602Z,793.13
2019-03-20T10:15:01.528Z,787.50
2019-03-20T10:16:01.581Z,781.88
2019-03-20T10:17:54.587Z,776.25
2019-03-20T10:18:54.625Z,770.63
2019-03-20T10:20:47.626Z,748.13
2019-03-20T10:21:47.667Z,731.25
2019-03-20T10:23:40.653Z,697.50
2019-03-20T10:24:40.722Z,691.88
2019-03-20T10:26:33.718Z,691.88
2019-03-20T10:27:33.760Z,686.25
2019-03-20T10:29:26.743Z,675.00
2019-03-20T10:30:26.800Z,663.75
2019-03-20T10:32:19.805Z,641.25
2019-03-20T10:33:19.841Z,635.63
2019-03-20T10:35:12.844Z,630.00
2019-03-20T10:36:12.899Z,641.25
2019-03-20T10:38:05.892Z,680.63
2019-03-20T10:39:06.879Z,703.13
2019-03-20T10:40:58.952Z,708.75
2019-03-20T10:41:58.991Z,691.88
2019-03-20T10:43:52.443Z,652.50
2019-03-20T10:44:52.040Z,646.88
2019-03-20T10:46:45.023Z,669.38
2019-03-20T10:47:45.080Z,686.25
2019-03-20T10:49:38.083Z,708.75
2019-03-20T10:50:38.123Z,703.13
2019-03-20T10:52:31.123Z,646.88
2019-03-20T10:53:31.172Z,635.63
2019-03-20T10:55:24.203Z,618.75
2019-03-20T10:56:24.240Z,607.50
2019-03-20T10:58:17.249Z,601.88
2019-03-20T10:59:17.279Z,607.50
2019-03-20T11:01:10.269Z,607.50
2019-03-20T11:02:10.329Z,607.50
2019-03-20T11:04:03.336Z,618.75
2019-03-20T11:05:03.374Z,635.63
2019-03-20T11:06:56.357Z,680.63
2019-03-20T11:07:56.431Z,691.88
2019-03-20T11:09:49.423Z,680.63
2019-03-20T11:10:49.472Z,686.25
2019-03-20T11:12:42.452Z,736.88
2019-03-20T11:13:42.508Z,736.88
2019-03-20T11:15:35.515Z,781.88
2019-03-20T11:16:35.553Z,798.75
2019-03-20T11:18:28.581Z,804.38
2019-03-20T11:19:28.598Z,821.25
2019-03-20T11:21:21.594Z,838.13
2019-03-20T11:22:21.658Z,843.75
2019-03-20T11:24:15.366Z,815.63
2019-03-20T11:25:14.696Z,810.00
2019-03-20T11:27:07.687Z,810.00
2019-03-20T11:28:07.747Z,815.63
2019-03-20T11:30:00.752Z,793.13
2019-03-20T11:31:00.790Z,765.00
2019-03-20T11:32:53.784Z,736.88
2019-03-20T11:33:53.844Z,725.63
2019-03-20T11:35:46.860Z,748.13
2019-03-20T11:36:46.894Z,753.75
2019-03-20T11:38:39.876Z,770.63
2019-03-20T11:39:39.938Z,776.25
2019-03-20T11:41:32.944Z,781.88
2019-03-20T11:42:32.997Z,770.63
2019-03-20T11:44:25.969Z,736.88
2019-03-20T11:45:26.083Z,720.00
2019-03-20T11:47:19.045Z,731.25
2019-03-20T11:48:19.077Z,731.25
2019-03-20T11:50:12.062Z,663.75
2019-03-20T11:51:12.120Z,613.13
2019-03-20T11:53:05.140Z,551.25
2019-03-20T11:54:05.166Z,517.50
2019-03-20T11:55:58.163Z,438.75
2019-03-20T11:56:58.220Z,410.63
2019-03-20T11:58:51.236Z,382.50
2019-03-20T11:59:51.269Z,388.13
2019-03-20T12:01:44.258Z,405.00
2019-03-20T12:02:44.317Z,393.75
2019-03-20T12:04:37.383Z,371.25
2019-03-20T12:05:37.399Z,371.25
2019-03-20T12:07:30.403Z,382.50
2019-03-20T12:08:30.433Z,410.63
2019-03-20T12:10:24.014Z,461.25
2019-03-20T12:11:23.991Z,483.75
2019-03-20T12:13:16.972Z,506.25
2019-03-20T12:14:17.031Z,506.25
2019-03-20T12:16:10.045Z,495.00
2019-03-20T12:17:10.076Z,472.50
2019-03-20T12:19:03.068Z,427.50
2019-03-20T12:20:03.125Z,405.00
2019-03-20T12:21:56.127Z,405.00
2019-03-20T12:22:56.170Z,421.88
2019-03-20T12:24:49.188Z,466.88
2019-03-20T12:25:49.238Z,495.00
2019-03-20T12:27:42.217Z,545.63
2019-03-20T12:28:42.279Z,562.50
2019-03-20T12:30:35.281Z,579.38
2019-03-20T12:31:35.332Z,579.38
2019-03-20T12:33:28.339Z,562.50
2019-03-20T12:34:28.383Z,540.00
2019-03-20T12:36:21.376Z,506.25
2019-03-20T12:37:21.424Z,500.63
2019-03-20T12:39:14.428Z,500.63
2019-03-20T12:40:14.471Z,489.38
2019-03-20T12:42:07.475Z,478.13
2019-03-20T12:43:07.516Z,466.88
2019-03-20T12:45:00.501Z,410.63
2019-03-20T12:46:00.643Z,393.75
2019-03-20T12:47:53.572Z,365.63
2019-03-20T12:48:53.603Z,360.00
2019-03-20T12:50:46.609Z,360.00
2019-03-20T12:51:46.667Z,371.25
2019-03-20T12:53:39.668Z,382.50
2019-03-20T12:54:39.742Z,399.38
2019-03-20T12:56:32.685Z,416.25
2019-03-20T12:57:32.746Z,427.50
2019-03-20T12:59:25.779Z,444.38
2019-03-20T13:00:27.463Z,450.00
2019-03-20T13:02:18.779Z,450.00
2019-03-20T13:03:18.848Z,455.63
2019-03-20T13:05:11.871Z,455.63
2019-03-20T13:06:11.884Z,455.63
2019-03-20T13:08:06.098Z,444.38
2019-03-20T13:09:04.939Z,433.13
2019-03-20T13:10:58.434Z,399.38
2019-03-20T13:11:58.489Z,388.13
2019-03-20T13:13:51.485Z,376.88
2019-03-20T13:14:51.532Z,376.88
2019-03-20T13:16:44.518Z,365.63
2019-03-20T13:17:44.578Z,354.38
2019-03-20T13:19:37.596Z,320.63
2019-03-20T13:20:37.626Z,309.38
2019-03-20T13:22:30.617Z,326.25
2019-03-20T13:23:30.673Z,331.88
2019-03-20T13:25:23.706Z,331.88
2019-03-20T13:26:23.715Z,326.25
2019-03-20T13:28:16.761Z,343.13
2019-03-20T13:29:16.750Z,354.38
2019-03-20T13:31:09.814Z,371.25
2019-03-20T13:32:09.793Z,382.50
2019-03-20T13:35:30.533Z,421.88
2019-03-20T13:36:30.658Z,433.13
2019-03-20T13:39:14.906Z,410.63
2019-03-20T13:40:15.069Z,399.38
2019-03-20T13:42:07.976Z,393.75
2019-03-20T13:43:09.039Z,393.75
2019-03-20T13:45:01.424Z,365.63
2019-03-20T13:46:01.063Z,360.00
2019-03-20T13:47:54.078Z,348.75
2019-03-20T13:48:54.118Z,343.13
2019-03-20T13:50:47.109Z,343.13
2019-03-20T13:51:47.164Z,331.88
2019-03-20T13:53:40.168Z,320.63
2019-03-20T13:54:40.206Z,331.88
2019-03-20T13:56:33.198Z,320.63
2019-03-20T13:57:33.248Z,326.25
2019-03-20T13:59:26.250Z,303.75
2019-03-20T14:00:26.300Z,292.50
2019-03-20T14:02:19.336Z,281.25
2019-03-20T14:03:19.350Z,286.88
2019-03-20T14:05:12.358Z,320.63
2019-03-20T14:06:12.388Z,348.75
2019-03-20T14:08:05.389Z,354.38
2019-03-20T14:09:05.442Z,343.13
2019-03-20T14:10:58.457Z,337.50
2019-03-20T14:11:58.484Z,326.25
2019-03-20T14:13:51.495Z,286.88
2019-03-20T14:14:51.546Z,275.63
2019-03-20T14:16:44.520Z,281.25
2019-03-20T14:17:44.575Z,275.63
2019-03-20T14:19:37.594Z,258.75
2019-03-20T14:20:37.620Z,241.88
2019-03-20T14:22:30.608Z,236.25
2019-03-20T14:23:30.665Z,236.25
2019-03-20T14:25:23.686Z,230.63
2019-03-20T14:26:23.721Z,219.38
2019-03-20T14:28:16.699Z,208.13
2019-03-20T14:29:16.751Z,219.38
2019-03-20T14:31:09.762Z,230.63
2019-03-20T14:32:09.794Z,230.63
2019-03-20T14:34:02.785Z,213.75
2019-03-20T14:35:02.845Z,196.88
2019-03-20T14:36:55.864Z,168.75
2019-03-20T14:37:55.890Z,174.38
2019-03-20T14:39:48.875Z,168.75
2019-03-20T14:40:48.929Z,163.13
2019-03-20T14:42:41.937Z,174.38
2019-03-20T14:43:41.978Z,180.00
2019-03-20T14:45:35.008Z,202.50
2019-03-20T14:46:35.041Z,253.13
2019-03-20T14:48:28.048Z,303.75
2019-03-20T14:49:28.092Z,331.88
2019-03-20T14:51:21.106Z,343.13
2019-03-20T14:52:21.220Z,343.13
2019-03-20T14:54:14.142Z,348.75
2019-03-20T14:55:14.195Z,337.50
2019-03-20T14:57:07.221Z,326.25
2019-03-20T14:58:07.251Z,320.63
2019-03-20T15:00:00.400Z,320.63
2019-03-20T15:01:00.305Z,326.25
2019-03-20T15:02:53.322Z,337.50
2019-03-20T15:03:53.352Z,337.50
2019-03-20T15:05:46.346Z,315.00
2019-03-20T15:06:46.406Z,303.75
2019-03-20T15:08:39.416Z,281.25
2019-03-20T15:09:39.445Z,270.00
2019-03-20T15:11:32.441Z,258.75
2019-03-20T15:12:32.509Z,253.13
2019-03-20T15:14:25.540Z,264.38
2019-03-20T15:15:25.563Z,275.63
2019-03-20T15:17:18.638Z,281.25
2019-03-20T15:18:18.678Z,286.88
2019-03-20T15:20:11.652Z,286.88
2019-03-20T15:21:11.712Z,286.88
2019-03-20T15:23:04.719Z,286.88
2019-03-20T15:24:04.753Z,292.50
2019-03-20T15:25:57.769Z,292.50
2019-03-20T15:26:57.796Z,298.13
2019-03-20T15:28:50.779Z,292.50
2019-03-20T15:29:50.843Z,292.50
2019-03-20T15:31:43.846Z,281.25
2019-03-20T15:32:43.917Z,275.63
2019-03-20T15:34:36.996Z,264.38
2019-03-20T15:35:36.949Z,270.00
2019-03-20T15:37:29.946Z,253.13
2019-03-20T15:38:29.978Z,247.50
2019-03-20T15:40:22.986Z,236.25
2019-03-20T15:41:23.015Z,230.63
2019-03-20T15:43:16.029Z,225.00
2019-03-20T15:44:16.063Z,225.00
2019-03-20T15:46:09.076Z,225.00
2019-03-20T15:47:09.120Z,219.38
2019-03-20T15:49:02.173Z,213.75
2019-03-20T15:50:02.160Z,213.75
2019-03-20T15:51:55.129Z,208.13
2019-03-20T15:52:55.195Z,208.13
2019-03-20T15:54:48.204Z,202.50
2019-03-20T15:55:48.235Z,202.50
2019-03-20T15:57:41.216Z,196.88
2019-03-20T15:58:41.276Z,191.25
2019-03-20T16:00:34.292Z,191.25
2019-03-20T16:01:34.323Z,191.25
2019-03-20T16:03:27.301Z,191.25
2019-03-20T16:04:27.361Z,191.25
2019-03-20T16:06:20.453Z,185.63
2019-03-20T16:07:20.417Z,185.63
2019-03-20T16:09:13.543Z,180.00
2019-03-20T16:10:13.444Z,174.38
2019-03-20T16:12:06.477Z,168.75
2019-03-20T16:13:06.516Z,168.75
2019-03-20T16:14:59.499Z,163.13
2019-03-20T16:15:59.554Z,163.13
2019-03-20T16:17:52.571Z,157.50
2019-03-20T16:18:52.599Z,157.50
2019-03-20T16:20:45.592Z,151.88
2019-03-20T16:21:45.640Z,151.88
2019-03-20T16:23:38.776Z,151.88
2019-03-20T16:24:38.717Z,146.25
2019-03-20T16:26:31.831Z,146.25
2019-03-20T16:27:31.752Z,140.63
2019-03-20T16:29:24.756Z,140.63
2019-03-20T16:30:24.785Z,135.00
2019-03-20T16:32:17.806Z,129.38
2019-03-20T16:33:17.847Z,123.75
2019-03-20T16:35:10.860Z,123.75
2019-03-20T16:36:10.889Z,118.13
2019-03-20T16:38:03.872Z,118.13
2019-03-20T16:39:03.932Z,118.13
2019-03-20T16:40:56.933Z,112.50
2019-03-20T16:41:56.976Z,112.50
2019-03-20T16:43:49.961Z,106.88
2019-03-20T16:44:50.020Z,106.88
2019-03-20T16:46:44.714Z,101.25
2019-03-20T16:47:43.071Z,95.63
2019-03-20T16:49:36.096Z,95.63
2019-03-20T16:50:36.110Z,90.00
2019-03-20T16:52:29.097Z,90.00
2019-03-20T16:53:29.163Z,84.38
2019-03-20T16:55:22.161Z,78.75
2019-03-20T16:56:22.215Z,73.13
2019-03-20T16:58:15.209Z,67.50
2019-03-20T16:59:15.284Z,61.88
2019-03-20T17:01:08.286Z,61.88
2019-03-20T17:02:08.410Z,56.25
2019-03-20T17:04:01.354Z,56.25
2019-03-20T17:05:01.394Z,50.63
2019-03-20T17:06:54.400Z,50.63
2019-03-20T17:07:54.434Z,50.63
2019-03-20T17:09:47.412Z,45.00
2019-03-20T17:10:47.521Z,45.00
2019-03-20T17:12:40.479Z,39.38
2019-03-20T17:13:40.514Z,39.38
2019-03-20T17:15:33.576Z,39.38
2019-03-20T17:16:33.582Z,39.38
2019-03-20T17:18:26.579Z,33.75
2019-03-20T17:19:26.637Z,33.75
2019-03-20T17:21:19.633Z,33.75
2019-03-20T17:22:19.686Z,28.13
2019-03-20T17:24:12.700Z,28.13
2019-03-20T17:25:12.823Z,28.13
2019-03-20T17:27:05.764Z,22.50
2019-03-20T17:28:05.775Z,22.50
2019-03-20T17:29:58.792Z,22.50
2019-03-20T17:30:58.826Z,16.88
2019-03-20T17:32:51.806Z,16.88
2019-03-20T17:33:51.853Z,11.25
2019-03-20T17:35:44.856Z,11.25
2019-03-20T17:36:44.892Z,11.25
2019-03-20T17:38:38.390Z,5.63
2019-03-20T17:39:38.454Z,5.63
2019-03-20T17:41:36.667Z,5.63
2019-03-20T17:42:31.511Z,5.63
2019-03-20T17:44:24.510Z,5.63
2019-03-20T17:45:24.556Z,5.63
2019-03-20T17:47:17.592Z,0.00
2019-03-20T17:48:17.656Z,0.00
2019-03-20T17:50:10.605Z,0.00
2019-03-20T17:51:10.637Z,0.00
2019-03-20T17:53:03.641Z,0.00
2019-03-20T17:54:03.676Z,0.00
2019-03-20T17:55:56.717Z,0.00
2019-03-20T17:56:56.720Z,0.00
2019-03-20T17:58:49.726Z,0.00
2019-03-20T17:59:49.760Z,0.00
2019-03-20T18:01:42.773Z,0.00
2019-03-20T18:02:42.822Z,0.00
2019-03-20T18:04:35.806Z,0.00
2019-03-20T18:05:35.854Z,0.00
2019-03-20T18:07:28.893Z,0.00
2019-03-20T18:08:28.896Z,0.00
2019-03-20T18:10:21.938Z,0.00
2019-03-20T18:11:21.940Z,0.00
2019-03-20T18:13:14.931Z,0.00
2019-03-20T18:14:14.978Z,0.00
2019-03-20T18:16:07.988Z,0.00
2019-03-20T18:17:08.018Z,0.00
2019-03-20T18:19:01.005Z,0.00
2019-03-20T18:20:01.065Z,0.00
2019-03-20T18:21:54.068Z,0.00
2019-03-20T18:22:54.117Z,0.00
2019-03-20T18:24:47.095Z,0.00
2019-03-20T18:25:47.152Z,0.00
2019-03-20T18:27:40.668Z,0.00